sensor_id;sensor_type;location;lat;lon;timestamp;P1;durP1;ratioP1;P2;durP2;ratioP2
14603;SDS011;7388;51.078;13.740;2023-03-24T00:00:17;2.90;;;2.07;;
14603;SDS011;7388;51.078;13.740;2023-03-24T00:02:45;2.65;;;2.15;;
14603;SDS011;7388;51.078;13.740;2023-03-24T00:05:16;2.65;;;2.35;;
14603;SDS011;7388;51.078;13.740;2023-03-24T00:07:43;4.38;;;2.08;;
14603;SDS011;7388;51.078;13.740;2023-03-24T00:10:11;3.53;;;1.98;;
14603;SDS011;7388;51.078;13.740;2023-03-24T00:12:39;3.50;;;2.00;;
14603;SDS011;7388;51.078;13.740;2023-03-24T00:15:08;3.38;;;2.65;;
14603;SDS011;7388;51.078;13.740;2023-03-24T00:17:36;2.67;;;2.08;;
14603;SDS011;7388;51.078;13.740;2023-03-24T00:20:07;2.65;;;2.25;;
14603;SDS011;7388;51.078;13.740;2023-03-24T00:22:39;3.45;;;2.85;;
14603;SDS011;7388;51.078;13.740;2023-03-24T00:25:14;3.28;;;2.92;;
14603;SDS011;7388;51.078;13.740;2023-03-24T00:27:44;3.25;;;2.60;;
14603;SDS011;7388;51.078;13.740;2023-03-24T00:30:13;3.60;;;2.63;;
14603;SDS011;7388;51.078;13.740;2023-03-24T00:32:39;3.15;;;2.42;;
14603;SDS011;7388;51.078;13.740;2023-03-24T00:35:06;3.00;;;2.13;;
14603;SDS011;7388;51.078;13.740;2023-03-24T00:37:36;2.97;;;1.85;;
14603;SDS011;7388;51.078;13.740;2023-03-24T00:40:07;3.75;;;2.80;;
14603;SDS011;7388;51.078;13.740;2023-03-24T00:42:37;3.72;;;2.50;;
14603;SDS011;7388;51.078;13.740;2023-03-24T00:45:05;2.80;;;2.00;;
14603;SDS011;7388;51.078;13.740;2023-03-24T00:47:33;3.80;;;2.63;;
14603;SDS011;7388;51.078;13.740;2023-03-24T00:50:06;3.15;;;2.35;;
14603;SDS011;7388;51.078;13.740;2023-03-24T00:52:36;3.22;;;2.13;;
14603;SDS011;7388;51.078;13.740;2023-03-24T00:55:08;8.60;;;3.25;;
14603;SDS011;7388;51.078;13.740;2023-03-24T00:57:37;3.38;;;2.83;;
14603;SDS011;7388;51.078;13.740;2023-03-24T01:00:06;3.95;;;2.55;;
14603;SDS011;7388;51.078;13.740;2023-03-24T01:02:43;4.85;;;3.50;;
14603;SDS011;7388;51.078;13.740;2023-03-24T01:05:10;6.22;;;2.53;;
14603;SDS011;7388;51.078;13.740;2023-03-24T01:07:38;3.42;;;2.58;;
14603;SDS011;7388;51.078;13.740;2023-03-24T01:10:06;3.80;;;2.83;;
14603;SDS011;7388;51.078;13.740;2023-03-24T01:12:37;3.65;;;3.10;;
14603;SDS011;7388;51.078;13.740;2023-03-24T01:15:05;3.30;;;2.63;;
14603;SDS011;7388;51.078;13.740;2023-03-24T01:17:42;3.70;;;3.08;;
14603;SDS011;7388;51.078;13.740;2023-03-24T01:20:11;4.43;;;3.80;;
14603;SDS011;7388;51.078;13.740;2023-03-24T01:22:38;3.40;;;3.10;;
14603;SDS011;7388;51.078;13.740;2023-03-24T01:25:12;6.10;;;3.40;;
14603;SDS011;7388;51.078;13.740;2023-03-24T01:27:41;5.32;;;3.28;;
14603;SDS011;7388;51.078;13.740;2023-03-24T01:30:08;4.85;;;2.28;;
14603;SDS011;7388;51.078;13.740;2023-03-24T01:32:37;5.13;;;2.92;;
14603;SDS011;7388;51.078;13.740;2023-03-24T01:35:03;8.73;;;3.27;;
14603;SDS011;7388;51.078;13.740;2023-03-24T01:37:30;3.50;;;2.72;;
14603;SDS011;7388;51.078;13.740;2023-03-24T01:39:56;4.77;;;3.07;;
14603;SDS011;7388;51.078;13.740;2023-03-24T01:42:22;5.70;;;3.53;;
14603;SDS011;7388;51.078;13.740;2023-03-24T01:44:50;3.80;;;3.05;;
14603;SDS011;7388;51.078;13.740;2023-03-24T01:47:19;3.50;;;3.20;;
14603;SDS011;7388;51.078;13.740;2023-03-24T01:49:49;4.67;;;2.40;;
14603;SDS011;7388;51.078;13.740;2023-03-24T01:52:32;4.22;;;3.10;;
14603;SDS011;7388;51.078;13.740;2023-03-24T01:55:01;4.05;;;3.08;;
14603;SDS011;7388;51.078;13.740;2023-03-24T01:57:37;4.80;;;3.15;;
14603;SDS011;7388;51.078;13.740;2023-03-24T02:00:12;4.05;;;2.95;;
14603;SDS011;7388;51.078;13.740;2023-03-24T02:02:41;5.15;;;3.83;;
14603;SDS011;7388;51.078;13.740;2023-03-24T02:05:10;4.03;;;3.40;;
14603;SDS011;7388;51.078;13.740;2023-03-24T02:10:39;3.80;;;2.97;;
14603;SDS011;7388;51.078;13.740;2023-03-24T02:13:06;4.50;;;3.55;;
14603;SDS011;7388;51.078;13.740;2023-03-24T02:15:47;3.60;;;2.83;;
14603;SDS011;7388;51.078;13.740;2023-03-24T02:37:27;6.03;;;3.78;;
14603;SDS011;7388;51.078;13.740;2023-03-24T02:41:02;5.50;;;4.05;;
14603;SDS011;7388;51.078;13.740;2023-03-24T02:43:39;5.93;;;4.38;;
14603;SDS011;7388;51.078;13.740;2023-03-24T02:46:29;4.10;;;3.70;;
14603;SDS011;7388;51.078;13.740;2023-03-24T02:49:09;5.40;;;3.50;;
14603;SDS011;7388;51.078;13.740;2023-03-24T02:51:51;5.10;;;3.33;;
14603;SDS011;7388;51.078;13.740;2023-03-24T02:54:23;4.53;;;3.17;;
14603;SDS011;7388;51.078;13.740;2023-03-24T02:59:40;4.15;;;3.75;;
14603;SDS011;7388;51.078;13.740;2023-03-24T03:02:29;3.92;;;3.20;;
14603;SDS011;7388;51.078;13.740;2023-03-24T03:05:03;5.38;;;4.00;;
14603;SDS011;7388;51.078;13.740;2023-03-24T03:07:32;7.35;;;3.70;;
14603;SDS011;7388;51.078;13.740;2023-03-24T03:12:43;3.47;;;2.80;;
14603;SDS011;7388;51.078;13.740;2023-03-24T03:15:15;6.38;;;2.97;;
14603;SDS011;7388;51.078;13.740;2023-03-24T03:18:20;4.18;;;3.72;;
14603;SDS011;7388;51.078;13.740;2023-03-24T03:20:42;4.78;;;3.17;;
14603;SDS011;7388;51.078;13.740;2023-03-24T03:23:14;4.32;;;3.00;;
14603;SDS011;7388;51.078;13.740;2023-03-24T03:25:46;4.20;;;3.50;;
14603;SDS011;7388;51.078;13.740;2023-03-24T03:28:20;5.25;;;3.58;;
14603;SDS011;7388;51.078;13.740;2023-03-24T03:30:53;4.88;;;3.45;;
14603;SDS011;7388;51.078;13.740;2023-03-24T03:33:31;4.10;;;3.50;;
14603;SDS011;7388;51.078;13.740;2023-03-24T03:41:30;4.05;;;3.33;;
14603;SDS011;7388;51.078;13.740;2023-03-24T03:43:56;3.57;;;3.10;;
14603;SDS011;7388;51.078;13.740;2023-03-24T03:46:22;4.57;;;3.37;;
14603;SDS011;7388;51.078;13.740;2023-03-24T03:48:48;4.20;;;3.60;;
14603;SDS011;7388;51.078;13.740;2023-03-24T03:51:15;14.48;;;4.38;;
14603;SDS011;7388;51.078;13.740;2023-03-24T03:53:55;6.47;;;3.25;;
14603;SDS011;7388;51.078;13.740;2023-03-24T03:56:24;4.45;;;3.63;;
14603;SDS011;7388;51.078;13.740;2023-03-24T03:58:53;5.68;;;3.40;;
14603;SDS011;7388;51.078;13.740;2023-03-24T04:01:20;3.53;;;2.95;;
14603;SDS011;7388;51.078;13.740;2023-03-24T04:07:18;7.45;;;3.92;;
14603;SDS011;7388;51.078;13.740;2023-03-24T04:09:51;4.97;;;3.22;;
14603;SDS011;7388;51.078;13.740;2023-03-24T04:15:35;2.95;;;2.65;;
14603;SDS011;7388;51.078;13.740;2023-03-24T04:29:12;6.72;;;3.15;;
14603;SDS011;7388;51.078;13.740;2023-03-24T04:32:00;4.03;;;2.75;;
14603;SDS011;7388;51.078;13.740;2023-03-24T04:34:39;3.85;;;3.10;;
14603;SDS011;7388;51.078;13.740;2023-03-24T04:37:13;4.18;;;3.22;;
14603;SDS011;7388;51.078;13.740;2023-03-24T04:39:49;4.15;;;3.33;;
14603;SDS011;7388;51.078;13.740;2023-03-24T04:42:24;5.85;;;2.97;;
14603;SDS011;7388;51.078;13.740;2023-03-24T04:45:00;3.95;;;3.42;;
14603;SDS011;7388;51.078;13.740;2023-03-24T04:47:28;4.05;;;3.55;;
14603;SDS011;7388;51.078;13.740;2023-03-24T04:50:00;5.55;;;3.47;;
14603;SDS011;7388;51.078;13.740;2023-03-24T04:52:27;4.78;;;3.30;;
14603;SDS011;7388;51.078;13.740;2023-03-24T04:54:53;4.47;;;3.50;;
14603;SDS011;7388;51.078;13.740;2023-03-24T04:57:19;6.03;;;3.60;;
14603;SDS011;7388;51.078;13.740;2023-03-24T04:59:45;6.23;;;3.53;;
14603;SDS011;7388;51.078;13.740;2023-03-24T05:02:11;4.03;;;2.80;;
14603;SDS011;7388;51.078;13.740;2023-03-24T05:04:36;5.30;;;3.90;;
14603;SDS011;7388;51.078;13.740;2023-03-24T05:07:03;5.30;;;3.67;;
14603;SDS011;7388;51.078;13.740;2023-03-24T05:09:29;5.03;;;3.30;;
14603;SDS011;7388;51.078;13.740;2023-03-24T05:11:57;5.43;;;3.53;;
14603;SDS011;7388;51.078;13.740;2023-03-24T05:14:23;4.13;;;3.10;;
14603;SDS011;7388;51.078;13.740;2023-03-24T05:16:49;4.03;;;2.90;;
14603;SDS011;7388;51.078;13.740;2023-03-24T05:19:15;3.97;;;3.30;;
14603;SDS011;7388;51.078;13.740;2023-03-24T05:21:41;3.40;;;3.07;;
14603;SDS011;7388;51.078;13.740;2023-03-24T05:24:06;4.80;;;3.37;;
14603;SDS011;7388;51.078;13.740;2023-03-24T05:26:33;4.80;;;3.70;;
14603;SDS011;7388;51.078;13.740;2023-03-24T05:28:59;3.47;;;3.00;;
14603;SDS011;7388;51.078;13.740;2023-03-24T05:31:25;5.35;;;4.20;;
14603;SDS011;7388;51.078;13.740;2023-03-24T05:33:51;5.33;;;4.77;;
14603;SDS011;7388;51.078;13.740;2023-03-24T05:36:17;8.33;;;4.00;;
14603;SDS011;7388;51.078;13.740;2023-03-24T05:38:42;4.90;;;4.00;;
14603;SDS011;7388;51.078;13.740;2023-03-24T05:41:08;6.80;;;3.77;;
14603;SDS011;7388;51.078;13.740;2023-03-24T05:43:34;6.00;;;4.23;;
14603;SDS011;7388;51.078;13.740;2023-03-24T05:46:00;7.30;;;5.00;;
14603;SDS011;7388;51.078;13.740;2023-03-24T05:48:26;4.43;;;4.03;;
14603;SDS011;7388;51.078;13.740;2023-03-24T05:50:52;5.60;;;4.17;;
14603;SDS011;7388;51.078;13.740;2023-03-24T05:53:18;6.85;;;4.70;;
14603;SDS011;7388;51.078;13.740;2023-03-24T05:55:44;5.43;;;4.57;;
14603;SDS011;7388;51.078;13.740;2023-03-24T05:58:10;5.63;;;4.77;;
14603;SDS011;7388;51.078;13.740;2023-03-24T06:00:36;7.27;;;4.80;;
14603;SDS011;7388;51.078;13.740;2023-03-24T06:03:03;7.43;;;4.47;;
14603;SDS011;7388;51.078;13.740;2023-03-24T06:05:29;5.63;;;4.10;;
14603;SDS011;7388;51.078;13.740;2023-03-24T06:07:55;5.28;;;4.40;;
14603;SDS011;7388;51.078;13.740;2023-03-24T06:10:25;8.00;;;6.38;;
14603;SDS011;7388;51.078;13.740;2023-03-24T06:12:52;6.97;;;4.60;;
14603;SDS011;7388;51.078;13.740;2023-03-24T06:15:20;6.32;;;4.25;;
14603;SDS011;7388;51.078;13.740;2023-03-24T06:17:48;7.00;;;4.90;;
14603;SDS011;7388;51.078;13.740;2023-03-24T06:20:14;4.95;;;3.97;;
14603;SDS011;7388;51.078;13.740;2023-03-24T06:22:43;8.40;;;5.05;;
14603;SDS011;7388;51.078;13.740;2023-03-24T06:25:10;7.97;;;3.95;;
14603;SDS011;7388;51.078;13.740;2023-03-24T06:27:42;7.32;;;4.75;;
14603;SDS011;7388;51.078;13.740;2023-03-24T06:30:10;7.03;;;5.03;;
14603;SDS011;7388;51.078;13.740;2023-03-24T06:32:38;5.60;;;4.93;;
14603;SDS011;7388;51.078;13.740;2023-03-24T06:35:03;7.50;;;4.17;;
14603;SDS011;7388;51.078;13.740;2023-03-24T06:37:29;13.35;;;5.22;;
14603;SDS011;7388;51.078;13.740;2023-03-24T06:39:55;6.97;;;4.90;;
14603;SDS011;7388;51.078;13.740;2023-03-24T06:42:21;6.37;;;4.13;;
14603;SDS011;7388;51.078;13.740;2023-03-24T06:44:47;7.73;;;5.37;;
14603;SDS011;7388;51.078;13.740;2023-03-24T06:47:12;5.80;;;4.33;;
14603;SDS011;7388;51.078;13.740;2023-03-24T06:49:38;5.87;;;4.50;;
14603;SDS011;7388;51.078;13.740;2023-03-24T06:52:04;4.43;;;3.53;;
14603;SDS011;7388;51.078;13.740;2023-03-24T06:54:30;4.70;;;4.07;;
14603;SDS011;7388;51.078;13.740;2023-03-24T06:56:55;4.33;;;3.93;;
14603;SDS011;7388;51.078;13.740;2023-03-24T06:59:22;5.43;;;4.33;;
14603;SDS011;7388;51.078;13.740;2023-03-24T07:01:51;5.75;;;3.95;;
14603;SDS011;7388;51.078;13.740;2023-03-24T07:04:18;10.95;;;4.97;;
14603;SDS011;7388;51.078;13.740;2023-03-24T07:06:44;7.32;;;4.68;;
14603;SDS011;7388;51.078;13.740;2023-03-24T07:09:11;5.85;;;4.90;;
14603;SDS011;7388;51.078;13.740;2023-03-24T07:11:37;5.85;;;4.32;;
14603;SDS011;7388;51.078;13.740;2023-03-24T07:14:03;4.70;;;4.17;;
14603;SDS011;7388;51.078;13.740;2023-03-24T07:16:29;5.88;;;4.43;;
14603;SDS011;7388;51.078;13.740;2023-03-24T07:18:58;5.13;;;3.90;;
14603;SDS011;7388;51.078;13.740;2023-03-24T07:21:25;10.27;;;5.85;;
14603;SDS011;7388;51.078;13.740;2023-03-24T07:23:50;4.90;;;3.20;;
14603;SDS011;7388;51.078;13.740;2023-03-24T07:26:16;7.27;;;4.40;;
14603;SDS011;7388;51.078;13.740;2023-03-24T07:28:42;4.53;;;4.10;;
14603;SDS011;7388;51.078;13.740;2023-03-24T07:31:08;5.10;;;3.63;;
14603;SDS011;7388;51.078;13.740;2023-03-24T07:33:35;4.15;;;3.67;;
14603;SDS011;7388;51.078;13.740;2023-03-24T07:36:02;5.05;;;3.80;;
14603;SDS011;7388;51.078;13.740;2023-03-24T07:38:28;4.43;;;3.70;;
14603;SDS011;7388;51.078;13.740;2023-03-24T07:40:56;6.43;;;3.65;;
14603;SDS011;7388;51.078;13.740;2023-03-24T07:43:23;5.55;;;4.05;;
14603;SDS011;7388;51.078;13.740;2023-03-24T07:45:48;6.30;;;4.13;;
14603;SDS011;7388;51.078;13.740;2023-03-24T07:48:15;5.80;;;4.05;;
14603;SDS011;7388;51.078;13.740;2023-03-24T07:50:41;5.13;;;4.40;;
14603;SDS011;7388;51.078;13.740;2023-03-24T07:53:06;5.87;;;3.20;;
14603;SDS011;7388;51.078;13.740;2023-03-24T07:55:38;5.10;;;3.80;;
14603;SDS011;7388;51.078;13.740;2023-03-24T07:58:04;3.80;;;2.92;;
14603;SDS011;7388;51.078;13.740;2023-03-24T08:00:30;4.32;;;3.55;;
14603;SDS011;7388;51.078;13.740;2023-03-24T08:02:57;5.30;;;3.00;;
14603;SDS011;7388;51.078;13.740;2023-03-24T08:05:27;4.40;;;3.67;;
14603;SDS011;7388;51.078;13.740;2023-03-24T08:07:55;2.80;;;2.10;;
14603;SDS011;7388;51.078;13.740;2023-03-24T08:10:26;4.13;;;3.13;;
14603;SDS011;7388;51.078;13.740;2023-03-24T08:12:53;3.80;;;2.85;;
14603;SDS011;7388;51.078;13.740;2023-03-24T08:15:20;11.40;;;2.50;;
14603;SDS011;7388;51.078;13.740;2023-03-24T08:17:46;4.97;;;2.35;;
14603;SDS011;7388;51.078;13.740;2023-03-24T08:20:13;3.67;;;2.80;;
14603;SDS011;7388;51.078;13.740;2023-03-24T08:22:40;2.70;;;2.28;;
14603;SDS011;7388;51.078;13.740;2023-03-24T08:25:09;2.97;;;2.30;;
14603;SDS011;7388;51.078;13.740;2023-03-24T08:27:36;4.13;;;2.33;;
14603;SDS011;7388;51.078;13.740;2023-03-24T08:30:04;4.47;;;2.58;;
14603;SDS011;7388;51.078;13.740;2023-03-24T08:32:32;5.07;;;3.00;;
14603;SDS011;7388;51.078;13.740;2023-03-24T08:34:58;3.70;;;2.60;;
14603;SDS011;7388;51.078;13.740;2023-03-24T08:37:24;6.30;;;3.27;;
14603;SDS011;7388;51.078;13.740;2023-03-24T08:39:51;3.60;;;2.40;;
14603;SDS011;7388;51.078;13.740;2023-03-24T08:42:17;2.85;;;2.15;;
14603;SDS011;7388;51.078;13.740;2023-03-24T08:44:42;3.53;;;1.90;;
14603;SDS011;7388;51.078;13.740;2023-03-24T08:47:08;4.43;;;2.90;;
14603;SDS011;7388;51.078;13.740;2023-03-24T08:49:34;7.90;;;2.73;;
14603;SDS011;7388;51.078;13.740;2023-03-24T08:52:00;4.15;;;2.83;;
14603;SDS011;7388;51.078;13.740;2023-03-24T08:54:26;5.00;;;3.10;;
14603;SDS011;7388;51.078;13.740;2023-03-24T08:56:52;3.07;;;2.30;;
14603;SDS011;7388;51.078;13.740;2023-03-24T08:59:18;5.93;;;3.40;;
14603;SDS011;7388;51.078;13.740;2023-03-24T09:01:44;4.77;;;3.23;;
14603;SDS011;7388;51.078;13.740;2023-03-24T09:04:09;3.50;;;2.57;;
14603;SDS011;7388;51.078;13.740;2023-03-24T09:06:35;3.80;;;3.20;;
14603;SDS011;7388;51.078;13.740;2023-03-24T09:09:01;4.43;;;2.77;;
14603;SDS011;7388;51.078;13.740;2023-03-24T09:11:26;4.10;;;2.50;;
14603;SDS011;7388;51.078;13.740;2023-03-24T09:13:52;5.53;;;3.57;;
14603;SDS011;7388;51.078;13.740;2023-03-24T09:16:18;3.87;;;2.90;;
14603;SDS011;7388;51.078;13.740;2023-03-24T09:18:44;4.73;;;3.00;;
14603;SDS011;7388;51.078;13.740;2023-03-24T09:21:10;3.15;;;2.38;;
14603;SDS011;7388;51.078;13.740;2023-03-24T09:23:36;3.85;;;2.55;;
14603;SDS011;7388;51.078;13.740;2023-03-24T09:26:02;3.17;;;2.50;;
14603;SDS011;7388;51.078;13.740;2023-03-24T09:28:28;3.28;;;2.38;;
14603;SDS011;7388;51.078;13.740;2023-03-24T09:30:58;3.03;;;2.60;;
14603;SDS011;7388;51.078;13.740;2023-03-24T09:33:25;6.20;;;3.40;;
14603;SDS011;7388;51.078;13.740;2023-03-24T09:35:56;4.28;;;2.75;;
14603;SDS011;7388;51.078;13.740;2023-03-24T09:38:23;7.93;;;2.90;;
14603;SDS011;7388;51.078;13.740;2023-03-24T09:40:53;4.47;;;2.87;;
14603;SDS011;7388;51.078;13.740;2023-03-24T09:46:10;3.10;;;2.03;;
14603;SDS011;7388;51.078;13.740;2023-03-24T09:48:54;2.90;;;2.58;;
14603;SDS011;7388;51.078;13.740;2023-03-24T09:51:40;6.10;;;2.35;;
14603;SDS011;7388;51.078;13.740;2023-03-24T09:56:57;4.22;;;2.20;;
14603;SDS011;7388;51.078;13.740;2023-03-24T09:59:28;4.82;;;2.50;;
14603;SDS011;7388;51.078;13.740;2023-03-24T10:01:58;2.78;;;2.17;;
14603;SDS011;7388;51.078;13.740;2023-03-24T10:04:25;2.78;;;2.00;;
14603;SDS011;7388;51.078;13.740;2023-03-24T10:06:57;2.97;;;2.25;;
14603;SDS011;7388;51.078;13.740;2023-03-24T10:09:30;2.35;;;2.13;;
14603;SDS011;7388;51.078;13.740;2023-03-24T10:26:02;3.45;;;2.25;;
14603;SDS011;7388;51.078;13.740;2023-03-24T10:28:50;3.38;;;1.63;;
14603;SDS011;7388;51.078;13.740;2023-03-24T10:31:26;5.53;;;1.50;;
14603;SDS011;7388;51.078;13.740;2023-03-24T10:33:55;2.63;;;1.88;;
14603;SDS011;7388;51.078;13.740;2023-03-24T10:36:21;6.82;;;2.10;;
14603;SDS011;7388;51.078;13.740;2023-03-24T10:38:49;1.90;;;1.30;;
14603;SDS011;7388;51.078;13.740;2023-03-24T10:41:17;2.70;;;1.40;;
14603;SDS011;7388;51.078;13.740;2023-03-24T10:43:49;3.85;;;1.50;;
14603;SDS011;7388;51.078;13.740;2023-03-24T10:46:19;1.80;;;1.10;;
14603;SDS011;7388;51.078;13.740;2023-03-24T10:48:51;2.67;;;1.40;;
14603;SDS011;7388;51.078;13.740;2023-03-24T10:51:30;1.60;;;1.23;;
14603;SDS011;7388;51.078;13.740;2023-03-24T10:56:59;4.35;;;1.27;;
14603;SDS011;7388;51.078;13.740;2023-03-24T10:59:45;1.75;;;1.10;;
14603;SDS011;7388;51.078;13.740;2023-03-24T11:02:24;2.95;;;1.08;;
14603;SDS011;7388;51.078;13.740;2023-03-24T11:05:01;2.75;;;0.95;;
14603;SDS011;7388;51.078;13.740;2023-03-24T11:07:43;1.95;;;1.17;;
14603;SDS011;7388;51.078;13.740;2023-03-24T11:17:58;2.50;;;1.02;;
14603;SDS011;7388;51.078;13.740;2023-03-24T11:20:29;1.90;;;1.25;;
14603;SDS011;7388;51.078;13.740;2023-03-24T11:25:42;2.30;;;1.25;;
14603;SDS011;7388;51.078;13.740;2023-03-24T11:28:16;2.67;;;1.75;;
14603;SDS011;7388;51.078;13.740;2023-03-24T11:30:48;2.05;;;1.20;;
14603;SDS011;7388;51.078;13.740;2023-03-24T11:33:17;2.23;;;1.33;;
14603;SDS011;7388;51.078;13.740;2023-03-24T11:35:46;1.60;;;1.10;;
14603;SDS011;7388;51.078;13.740;2023-03-24T11:38:17;2.40;;;1.58;;
14603;SDS011;7388;51.078;13.740;2023-03-24T11:40:52;1.52;;;1.00;;
14603;SDS011;7388;51.078;13.740;2023-03-24T11:43:22;2.40;;;1.33;;
14603;SDS011;7388;51.078;13.740;2023-03-24T11:48:43;5.43;;;1.30;;
14603;SDS011;7388;51.078;13.740;2023-03-24T11:54:13;1.80;;;1.10;;
14603;SDS011;7388;51.078;13.740;2023-03-24T11:56:43;2.67;;;1.50;;
14603;SDS011;7388;51.078;13.740;2023-03-24T12:02:31;2.35;;;1.55;;
14603;SDS011;7388;51.078;13.740;2023-03-24T12:05:10;1.83;;;1.13;;
14603;SDS011;7388;51.078;13.740;2023-03-24T12:13:38;3.67;;;1.67;;
14603;SDS011;7388;51.078;13.740;2023-03-24T12:21:39;3.00;;;1.73;;
14603;SDS011;7388;51.078;13.740;2023-03-24T12:26:48;2.58;;;1.30;;
14603;SDS011;7388;51.078;13.740;2023-03-24T12:32:18;2.30;;;1.57;;
14603;SDS011;7388;51.078;13.740;2023-03-24T12:38:20;2.80;;;1.90;;
14603;SDS011;7388;51.078;13.740;2023-03-24T12:41:04;3.13;;;2.00;;
14603;SDS011;7388;51.078;13.740;2023-03-24T12:43:46;4.43;;;1.50;;
14603;SDS011;7388;51.078;13.740;2023-03-24T12:52:10;2.13;;;1.17;;
14603;SDS011;7388;51.078;13.740;2023-03-24T12:54:52;1.80;;;0.80;;
14603;SDS011;7388;51.078;13.740;2023-03-24T12:57:35;2.20;;;1.20;;
14603;SDS011;7388;51.078;13.740;2023-03-24T13:00:10;2.10;;;1.00;;
14603;SDS011;7388;51.078;13.740;2023-03-24T13:02:42;3.00;;;2.57;;
14603;SDS011;7388;51.078;13.740;2023-03-24T13:05:19;1.75;;;0.90;;
14603;SDS011;7388;51.078;13.740;2023-03-24T13:07:49;2.53;;;1.80;;
14603;SDS011;7388;51.078;13.740;2023-03-24T13:10:24;3.10;;;1.20;;
14603;SDS011;7388;51.078;13.740;2023-03-24T13:15:34;1.70;;;1.00;;
14603;SDS011;7388;51.078;13.740;2023-03-24T13:18:23;1.93;;;0.90;;
14603;SDS011;7388;51.078;13.740;2023-03-24T13:20:52;2.00;;;1.13;;
14603;SDS011;7388;51.078;13.740;2023-03-24T13:31:36;2.38;;;1.23;;
14603;SDS011;7388;51.078;13.740;2023-03-24T13:34:21;1.70;;;1.00;;
14603;SDS011;7388;51.078;13.740;2023-03-24T13:37:08;2.05;;;1.60;;
14603;SDS011;7388;51.078;13.740;2023-03-24T13:39:42;3.10;;;1.10;;
14603;SDS011;7388;51.078;13.740;2023-03-24T13:42:31;3.10;;;2.10;;
14603;SDS011;7388;51.078;13.740;2023-03-24T13:44:56;2.60;;;2.10;;
14603;SDS011;7388;51.078;13.740;2023-03-24T13:47:25;3.67;;;1.55;;
14603;SDS011;7388;51.078;13.740;2023-03-24T13:50:00;3.50;;;1.50;;
14603;SDS011;7388;51.078;13.740;2023-03-24T13:52:35;3.13;;;2.10;;
14603;SDS011;7388;51.078;13.740;2023-03-24T13:55:13;2.00;;;1.30;;
14603;SDS011;7388;51.078;13.740;2023-03-24T13:57:51;1.98;;;1.30;;
14603;SDS011;7388;51.078;13.740;2023-03-24T14:00:22;2.30;;;1.55;;
14603;SDS011;7388;51.078;13.740;2023-03-24T14:02:49;4.55;;;1.48;;
14603;SDS011;7388;51.078;13.740;2023-03-24T14:19:20;2.30;;;1.73;;
14603;SDS011;7388;51.078;13.740;2023-03-24T14:21:52;4.57;;;1.70;;
14603;SDS011;7388;51.078;13.740;2023-03-24T14:24:36;3.45;;;1.40;;
14603;SDS011;7388;51.078;13.740;2023-03-24T14:32:59;2.20;;;1.10;;
14603;SDS011;7388;51.078;13.740;2023-03-24T14:35:38;2.38;;;1.17;;
14603;SDS011;7388;51.078;13.740;2023-03-24T14:40:39;3.60;;;1.50;;
14603;SDS011;7388;51.078;13.740;2023-03-24T14:43:16;2.72;;;1.85;;
14603;SDS011;7388;51.078;13.740;2023-03-24T14:48:33;3.75;;;1.50;;
14603;SDS011;7388;51.078;13.740;2023-03-24T14:53:49;3.35;;;1.20;;
14603;SDS011;7388;51.078;13.740;2023-03-24T14:56:15;3.58;;;1.70;;
14603;SDS011;7388;51.078;13.740;2023-03-24T14:58:45;2.15;;;1.40;;
14603;SDS011;7388;51.078;13.740;2023-03-24T15:01:15;2.70;;;1.42;;
14603;SDS011;7388;51.078;13.740;2023-03-24T15:06:29;3.55;;;1.25;;
14603;SDS011;7388;51.078;13.740;2023-03-24T15:08:56;1.77;;;1.15;;
14603;SDS011;7388;51.078;13.740;2023-03-24T15:11:32;1.70;;;1.05;;
14603;SDS011;7388;51.078;13.740;2023-03-24T15:14:01;3.53;;;1.63;;
14603;SDS011;7388;51.078;13.740;2023-03-24T15:16:32;10.80;;;1.70;;
14603;SDS011;7388;51.078;13.740;2023-03-24T15:21:49;3.25;;;1.38;;
14603;SDS011;7388;51.078;13.740;2023-03-24T15:24:30;3.17;;;1.85;;
14603;SDS011;7388;51.078;13.740;2023-03-24T15:29:36;3.72;;;2.08;;
14603;SDS011;7388;51.078;13.740;2023-03-24T15:32:03;4.75;;;1.50;;
14603;SDS011;7388;51.078;13.740;2023-03-24T15:37:02;2.08;;;1.52;;
14603;SDS011;7388;51.078;13.740;2023-03-24T15:39:34;4.53;;;2.30;;
14603;SDS011;7388;51.078;13.740;2023-03-24T15:42:04;2.80;;;1.83;;
14603;SDS011;7388;51.078;13.740;2023-03-24T15:44:34;3.15;;;2.15;;
14603;SDS011;7388;51.078;13.740;2023-03-24T15:47:02;6.15;;;1.33;;
14603;SDS011;7388;51.078;13.740;2023-03-24T15:49:31;3.00;;;1.85;;
14603;SDS011;7388;51.078;13.740;2023-03-24T15:51:59;4.80;;;2.40;;
14603;SDS011;7388;51.078;13.740;2023-03-24T15:54:35;6.45;;;1.80;;
14603;SDS011;7388;51.078;13.740;2023-03-24T16:00:06;3.38;;;1.90;;
14603;SDS011;7388;51.078;13.740;2023-03-24T16:02:46;2.60;;;1.58;;
14603;SDS011;7388;51.078;13.740;2023-03-24T16:05:29;3.70;;;1.90;;
14603;SDS011;7388;51.078;13.740;2023-03-24T16:07:57;4.25;;;1.88;;
14603;SDS011;7388;51.078;13.740;2023-03-24T16:10:32;3.25;;;1.55;;
14603;SDS011;7388;51.078;13.740;2023-03-24T16:13:19;3.53;;;1.73;;
14603;SDS011;7388;51.078;13.740;2023-03-24T16:15:47;2.80;;;1.60;;
14603;SDS011;7388;51.078;13.740;2023-03-24T16:18:32;3.80;;;2.00;;
14603;SDS011;7388;51.078;13.740;2023-03-24T16:21:00;3.80;;;2.20;;
14603;SDS011;7388;51.078;13.740;2023-03-24T16:23:28;5.13;;;2.60;;
14603;SDS011;7388;51.078;13.740;2023-03-24T16:25:54;4.93;;;2.05;;
14603;SDS011;7388;51.078;13.740;2023-03-24T16:28:20;3.47;;;1.90;;
14603;SDS011;7388;51.078;13.740;2023-03-24T16:30:55;2.95;;;1.98;;
14603;SDS011;7388;51.078;13.740;2023-03-24T16:33:25;6.50;;;2.55;;
14603;SDS011;7388;51.078;13.740;2023-03-24T16:35:51;2.75;;;2.20;;
14603;SDS011;7388;51.078;13.740;2023-03-24T16:38:17;4.07;;;1.85;;
14603;SDS011;7388;51.078;13.740;2023-03-24T16:40:50;4.63;;;2.27;;
14603;SDS011;7388;51.078;13.740;2023-03-24T16:43:17;2.08;;;1.40;;
14603;SDS011;7388;51.078;13.740;2023-03-24T16:45:45;2.00;;;1.50;;
14603;SDS011;7388;51.078;13.740;2023-03-24T16:48:12;3.05;;;1.50;;
14603;SDS011;7388;51.078;13.740;2023-03-24T16:50:42;4.07;;;1.80;;
14603;SDS011;7388;51.078;13.740;2023-03-24T16:53:10;2.95;;;1.92;;
14603;SDS011;7388;51.078;13.740;2023-03-24T16:55:36;1.58;;;1.02;;
14603;SDS011;7388;51.078;13.740;2023-03-24T16:58:04;2.75;;;1.80;;
14603;SDS011;7388;51.078;13.740;2023-03-24T17:00:30;3.10;;;1.50;;
14603;SDS011;7388;51.078;13.740;2023-03-24T17:02:57;3.20;;;1.70;;
14603;SDS011;7388;51.078;13.740;2023-03-24T17:05:26;5.22;;;2.15;;
14603;SDS011;7388;51.078;13.740;2023-03-24T17:07:56;2.67;;;2.20;;
14603;SDS011;7388;51.078;13.740;2023-03-24T17:10:25;5.20;;;1.80;;
14603;SDS011;7388;51.078;13.740;2023-03-24T17:12:53;6.22;;;1.27;;
14603;SDS011;7388;51.078;13.740;2023-03-24T17:15:21;1.85;;;1.42;;
14603;SDS011;7388;51.078;13.740;2023-03-24T17:17:48;2.00;;;1.40;;
14603;SDS011;7388;51.078;13.740;2023-03-24T17:20:15;2.35;;;1.55;;
14603;SDS011;7388;51.078;13.740;2023-03-24T17:22:41;4.97;;;1.60;;
14603;SDS011;7388;51.078;13.740;2023-03-24T17:25:12;2.47;;;1.58;;
14603;SDS011;7388;51.078;13.740;2023-03-24T17:27:39;3.75;;;2.33;;
14603;SDS011;7388;51.078;13.740;2023-03-24T17:30:06;2.33;;;1.33;;
14603;SDS011;7388;51.078;13.740;2023-03-24T17:32:33;4.25;;;2.20;;
14603;SDS011;7388;51.078;13.740;2023-03-24T17:34:59;3.83;;;2.20;;
14603;SDS011;7388;51.078;13.740;2023-03-24T17:37:27;3.35;;;1.98;;
14603;SDS011;7388;51.078;13.740;2023-03-24T17:39:54;5.95;;;2.45;;
14603;SDS011;7388;51.078;13.740;2023-03-24T17:42:21;3.55;;;1.67;;
14603;SDS011;7388;51.078;13.740;2023-03-24T17:44:48;4.90;;;2.25;;
14603;SDS011;7388;51.078;13.740;2023-03-24T17:47:14;2.53;;;1.83;;
14603;SDS011;7388;51.078;13.740;2023-03-24T17:49:40;3.93;;;2.47;;
14603;SDS011;7388;51.078;13.740;2023-03-24T17:52:06;4.22;;;1.85;;
14603;SDS011;7388;51.078;13.740;2023-03-24T17:54:32;7.83;;;2.60;;
14603;SDS011;7388;51.078;13.740;2023-03-24T17:56:58;3.40;;;2.55;;